Meteo Giornale » Osservazioni meteo Italia » Treviso-Istrana

ore: 04:55 - Osservazioni Meteo Treviso-Istrana
Lat. 45° 41' N Lon. 12° 6' E Alt. 45 metri s.l.m.

sereno Europe/Rome

23 °C

Sereno

Temp. 24 Ore

22 °C

33 °C

Nord

0 Km/h

Dew point 21 °C

Umidità 88 %

Visibilità  10 Km

Il sole sorge alle ore 06:14

Il sole tramonta alle ore 20:16

Data e Ora Cielo e Fenomeni T °C DP °C Um. % Pres. hPa Vis. km Vento km/h
Oggi h: 04:55 sereno Sereno 23 21 88 1013 10 N 0
Oggi h: 03:55 sereno Sereno 23 21 88 1012 10 N 0
Oggi h: 02:55 sereno Sereno 23 19 78 1012 10 N 0
Oggi h: 01:55 sereno Sereno 23 21 88 1012 10 N 0
Oggi h: 00:55 sereno Sereno 24 22 88 1012 10 N 0
Ieri h: 23:55 sereno Sereno 24 22 88 1012 10 N 0
Ieri h: 22:55 nuvoloso Nuvoloso 25 23 88 1013 10 N 0
Ieri h: 21:55 coperto_pioggia Pioggia Debole 25 21 78 1012 8 N 0
Ieri h: 20:55 coperto_pioggia Pioggia Debole 27 22 74 1013 9 N 0
Ieri h: 19:55 poco_nuvoloso Poco Nuvoloso 28 22 69 1011 10 N 0
Ieri h: 18:55 sereno Sereno 29 22 66 1011 10 N 0
Ieri h: 17:55 sereno Sereno 30 23 66 1011 10 N 0
Ieri h: 16:55 poco_nuvoloso Poco Nuvoloso 32 24 62 1012 10 N 0
Ieri h: 15:55 poco_nuvoloso Poco Nuvoloso 33 23 55 1012 10 N 0
Ieri h: 14:55 poco_nuvoloso Poco Nuvoloso 31 21 55 1012 10 N 0
Ieri h: 13:55 poco_nuvoloso Poco Nuvoloso 32 21 52 1013 10 N 0
Ieri h: 12:55 poco_nuvoloso Poco Nuvoloso 32 20 49 1013 10 N 0
Ieri h: 11:55 poco_nuvoloso Poco Nuvoloso 31 20 52 1013 10 N 0
Ieri h: 10:55 nuvoloso Nuvoloso 28 20 61 1013 10 N 0
Ieri h: 09:55 poco_nuvoloso Poco Nuvoloso 27 21 69 1013 10 N 0
Ieri h: 08:55 sereno Sereno 25 20 73 1013 10 N 0
Ieri h: 07:55 poco_nuvoloso Poco Nuvoloso 23 19 78 1012 10 N 0
Ieri h: 06:55 nuvoloso Nuvoloso 22 19 83 1012 10 N 0